Time;durP1;ratioP1;P1;durP2;ratioP2;P2;SDS_P1;SDS_P2;PMS_P1;PMS_P2;Temp;Humidity;BMP_temperature;BMP_pressure;BME280_temperature;BME280_humidity;BME280_pressure;Samples;Min_cycle;Max_cycle;Signal;HPM_P1;HPM_P2
2021/11/25 00:00:19;;;;;;;4.30;3.90;;;;;20.00;100283.00;;;;2076918;28;20232;-47
2021/11/25 00:01:19;;;;;;;4.60;4.20;;;;;20.00;100283.00;;;;2070028;28;20222;-46
2021/11/25 00:02:20;;;;;;;4.10;3.80;;;;;20.00;100279.00;;;;2067345;28;20225;-47
2021/11/25 00:03:20;;;;;;;4.47;4.07;;;;;19.90;100280.00;;;;2077495;28;20213;-45
2021/11/25 00:04:21;;;;;;;4.72;4.32;;;;;19.90;100278.00;;;;2078593;28;20685;-45
2021/11/25 00:05:21;;;;;;;4.53;4.13;;;;;20.00;100273.00;;;;2078352;28;20237;-46
2021/11/25 00:06:22;;;;;;;4.27;3.87;;;;;19.90;100270.00;;;;2078575;28;20340;-46
2021/11/25 00:07:23;;;;;;;4.18;3.88;;;;;19.90;100269.00;;;;2077654;28;20643;-45
2021/11/25 00:08:24;;;;;;;3.95;3.60;;;;;19.90;100263.00;;;;2078227;28;20600;-47
2021/11/25 00:09:24;;;;;;;5.07;4.57;;;;;19.90;100264.00;;;;2078603;28;20206;-45
2021/11/25 00:10:24;;;;;;;4.43;4.03;;;;;19.90;100266.00;;;;2071354;28;20229;-48
2021/11/25 00:11:25;;;;;;;4.57;4.17;;;;;19.90;100264.00;;;;2078563;28;20481;-45
2021/11/25 00:12:26;;;;;;;4.27;3.87;;;;;19.90;100258.00;;;;2079174;28;20232;-46
2021/11/25 00:13:26;;;;;;;4.90;4.03;;;;;20.00;100267.00;;;;2077054;28;20225;-46
2021/11/25 00:14:27;;;;;;;4.80;4.40;;;;;20.00;100267.00;;;;2068410;28;20289;-46
2021/11/25 00:15:28;;;;;;;4.38;3.97;;;;;20.00;100269.00;;;;2078062;28;20236;-45
2021/11/25 00:16:28;;;;;;;4.53;4.13;;;;;20.00;100263.00;;;;2078286;28;20210;-47
2021/11/25 00:17:29;;;;;;;5.00;4.60;;;;;20.00;100263.00;;;;2077771;28;20234;-46
2021/11/25 00:18:29;;;;;;;4.47;4.07;;;;;19.90;100256.00;;;;2077777;28;20218;-46
2021/11/25 00:19:29;;;;;;;4.47;4.10;;;;;20.00;100258.00;;;;2078310;28;20264;-46
2021/11/25 00:20:30;;;;;;;4.50;4.10;;;;;19.90;100256.00;;;;2076846;28;20210;-46
2021/11/25 00:21:32;;;;;;;4.50;4.10;;;;;19.90;100247.00;;;;2078513;28;20232;-46
2021/11/25 00:22:32;;;;;;;4.20;3.80;;;;;19.90;100249.00;;;;2077944;28;20217;-45
2021/11/25 00:23:32;;;;;;;4.47;4.07;;;;;19.90;100254.00;;;;2076410;28;20304;-46
2021/11/25 00:24:33;;;;;;;4.03;3.67;;;;;19.90;100243.00;;;;2079009;28;20202;-47
2021/11/25 00:25:33;;;;;;;4.30;3.93;;;;;19.90;100237.00;;;;2076149;28;20224;-47
2021/11/25 00:26:36;;;;;;;3.97;3.60;;;;;19.90;100243.00;;;;2074494;28;20212;-45
2021/11/25 00:27:37;;;;;;;3.92;3.63;;;;;19.90;100241.00;;;;2078035;28;20476;-46
2021/11/25 00:28:38;;;;;;;4.17;3.77;;;;;19.90;100235.00;;;;2077676;28;20713;-46
2021/11/25 00:29:38;;;;;;;4.50;4.10;;;;;19.90;100234.00;;;;2077026;28;20217;-45
2021/11/25 00:30:39;;;;;;;4.03;3.73;;;;;19.90;100232.00;;;;2077512;28;20756;-47
2021/11/25 00:31:40;;;;;;;4.23;3.90;;;;;19.90;100235.00;;;;2075681;28;20598;-47
2021/11/25 00:32:40;;;;;;;3.90;3.60;;;;;19.90;100239.00;;;;2070690;28;20215;-46
2021/11/25 00:33:41;;;;;;;4.60;4.20;;;;;19.90;100236.00;;;;2073854;28;20217;-47
2021/11/25 00:34:41;;;;;;;4.23;3.93;;;;;19.90;100225.00;;;;2078009;28;20457;-46
2021/11/25 00:35:42;;;;;;;3.80;3.50;;;;;19.90;100232.00;;;;2074570;28;20237;-46
2021/11/25 00:36:42;;;;;;;4.10;3.80;;;;;19.90;100227.00;;;;2070591;28;20222;-46
2021/11/25 00:37:42;;;;;;;4.13;3.73;;;;;19.90;100226.00;;;;2068186;28;20217;-45
2021/11/25 00:38:44;;;;;;;4.27;3.87;;;;;19.90;100222.00;;;;2065690;28;20233;-46
2021/11/25 00:39:45;;;;;;;3.97;3.67;;;;;19.90;100217.00;;;;2069312;28;20218;-46
2021/11/25 00:40:47;;;;;;;4.00;3.60;;;;;19.90;100220.00;;;;2068268;28;20214;-46
2021/11/25 00:41:49;;;;;;;3.70;3.40;;;;;19.90;100211.00;;;;2068964;28;20720;-46
2021/11/25 00:42:50;;;;;;;4.38;3.97;;;;;19.90;100213.00;;;;2069591;28;20218;-46
2021/11/25 00:43:50;;;;;;;3.90;3.60;;;;;19.90;100206.00;;;;2070534;28;20577;-46
2021/11/25 00:44:50;;;;;;;4.43;3.73;;;;;19.90;100211.00;;;;2069520;28;20585;-45
2021/11/25 00:45:51;;;;;;;4.03;3.73;;;;;19.90;100223.00;;;;2069954;28;20785;-44
2021/11/25 00:46:51;;;;;;;5.87;3.50;;;;;19.90;100218.00;;;;2070726;28;20867;-44
2021/11/25 00:47:52;;;;;;;4.83;4.43;;;;;19.90;100210.00;;;;2069837;28;20614;-47
2021/11/25 00:48:52;;;;;;;4.27;3.97;;;;;19.90;100221.00;;;;2070152;28;20321;-47
2021/11/25 00:49:52;;;;;;;4.60;4.20;;;;;19.90;100212.00;;;;2069631;28;20212;-46
2021/11/25 00:50:53;;;;;;;3.73;3.33;;;;;19.90;100214.00;;;;2064899;28;20214;-45
2021/11/25 00:51:53;;;;;;;3.70;3.40;;;;;19.90;100208.00;;;;2070243;28;20233;-46
2021/11/25 00:52:53;;;;;;;4.50;4.10;;;;;19.90;100219.00;;;;2069119;28;20218;-44
2021/11/25 00:53:54;;;;;;;3.77;3.47;;;;;19.90;100216.00;;;;2070057;28;20640;-46
2021/11/25 00:54:54;;;;;;;3.80;3.50;;;;;19.90;100216.00;;;;2070280;28;20210;-47
2021/11/25 00:55:55;;;;;;;3.60;3.30;;;;;19.90;100208.00;;;;2068467;28;20229;-47
2021/11/25 00:56:55;;;;;;;3.90;3.60;;;;;19.90;100206.00;;;;2070762;28;20224;-46
2021/11/25 00:57:55;;;;;;;3.70;3.40;;;;;19.90;100204.00;;;;2070843;28;20394;-49
2021/11/25 00:58:56;;;;;;;4.03;3.73;;;;;19.90;100205.00;;;;2070542;28;20213;-46
2021/11/25 00:59:56;;;;;;;3.90;3.57;;;;;19.90;100201.00;;;;2070077;28;20232;-47
2021/11/25 01:00:57;;;;;;;3.60;3.30;;;;;19.90;100200.00;;;;2063931;28;20803;-46
2021/11/25 01:01:57;;;;;;;4.00;3.70;;;;;19.80;100196.00;;;;2070492;28;20218;-45
2021/11/25 01:02:58;;;;;;;3.93;3.63;;;;;19.80;100191.00;;;;2069745;28;20238;-50
2021/11/25 01:03:59;;;;;;;4.20;3.80;;;;;19.90;100194.00;;;;2072363;28;20264;-48
2021/11/25 01:04:59;;;;;;;3.83;3.50;;;;;19.90;100196.00;;;;2077864;28;20224;-45
2021/11/25 01:06:00;;;;;;;3.70;3.40;;;;;19.90;100193.00;;;;2068976;28;20249;-45
2021/11/25 01:07:00;;;;;;;4.30;3.90;;;;;19.80;100195.00;;;;2068995;28;20233;-48
2021/11/25 01:08:00;;;;;;;4.27;3.87;;;;;19.90;100200.00;;;;2076703;28;20230;-45
2021/11/25 01:09:01;;;;;;;3.67;3.33;;;;;19.90;100196.00;;;;2069957;28;20237;-46
2021/11/25 01:10:03;;;;;;;3.70;3.40;;;;;19.90;100194.00;;;;2069213;28;20222;-45
2021/11/25 01:11:04;;;;;;;4.15;3.38;;;;;19.90;100200.00;;;;2069357;28;20304;-46
2021/11/25 01:12:06;;;;;;;3.90;3.60;;;;;19.90;100204.00;;;;2066633;28;20222;-46
2021/11/25 01:13:06;;;;;;;3.78;3.47;;;;;19.90;100198.00;;;;2068254;28;20218;-45
2021/11/25 01:14:07;;;;;;;3.13;2.83;;;;;19.90;100205.00;;;;2069901;28;20217;-46
2021/11/25 01:15:09;;;;;;;4.00;3.70;;;;;19.80;100201.00;;;;2070100;28;20245;-46
2021/11/25 01:16:09;;;;;;;3.88;3.58;;;;;19.90;100207.00;;;;2069683;28;20218;-46
2021/11/25 01:17:10;;;;;;;4.00;3.60;;;;;19.80;100205.00;;;;2069870;28;20301;-45
2021/11/25 01:18:13;;;;;;;3.97;3.67;;;;;19.80;100206.00;;;;2070083;28;20751;-45
2021/11/25 01:19:13;;;;;;;3.72;3.42;;;;;19.80;100201.00;;;;2069291;28;20295;-48
2021/11/25 01:20:17;;;;;;;3.50;3.20;;;;;19.80;100209.00;;;;2069292;28;20764;-47
2021/11/25 01:21:18;;;;;;;3.88;3.47;;;;;19.80;100209.00;;;;2069702;28;20233;-46
2021/11/25 01:22:18;;;;;;;3.90;3.57;;;;;19.80;100200.00;;;;2068630;28;20215;-48
2021/11/25 01:23:23;;;;;;;3.63;3.33;;;;;19.80;100206.00;;;;2069199;28;20466;-45
2021/11/25 01:24:24;;;;;;;3.85;3.53;;;;;19.80;100202.00;;;;2076095;28;20278;-47
2021/11/25 01:25:24;;;;;;;3.57;3.27;;;;;19.80;100202.00;;;;2078390;28;20747;-46
2021/11/25 01:26:26;;;;;;;3.20;3.00;;;;;19.80;100207.00;;;;2078598;28;20312;-46
2021/11/25 01:27:26;;;;;;;3.78;3.47;;;;;19.80;100217.00;;;;2078471;28;20205;-48
2021/11/25 01:28:26;;;;;;;3.20;2.90;;;;;19.80;100210.00;;;;2077695;28;20217;-46
2021/11/25 01:29:27;;;;;;;4.37;3.97;;;;;19.90;100205.00;;;;2070528;28;20213;-46
2021/11/25 01:30:27;;;;;;;3.33;2.90;;;;;19.90;100209.00;;;;2069316;28;20214;-46
2021/11/25 01:31:28;;;;;;;4.20;3.90;;;;;19.90;100212.00;;;;2070538;28;20217;-45
2021/11/25 01:32:28;;;;;;;3.60;3.30;;;;;19.90;100210.00;;;;2069388;28;20628;-46
2021/11/25 01:33:29;;;;;;;3.80;3.50;;;;;19.90;100205.00;;;;2070033;28;20214;-46
2021/11/25 01:34:30;;;;;;;3.70;3.40;;;;;19.90;100209.00;;;;2075834;28;20266;-45
2021/11/25 01:35:30;;;;;;;3.88;3.55;;;;;19.90;100209.00;;;;2086033;28;20447;-47
2021/11/25 01:36:31;;;;;;;3.13;2.93;;;;;19.90;100206.00;;;;2078715;28;20236;-46
2021/11/25 01:37:31;;;;;;;3.73;3.27;;;;;19.90;100206.00;;;;2078198;28;20221;-45
2021/11/25 01:38:32;;;;;;;3.30;3.10;;;;;19.90;100204.00;;;;2075045;28;20213;-45
2021/11/25 01:39:32;;;;;;;3.67;3.30;;;;;19.90;100201.00;;;;2077034;28;20602;-48
2021/11/25 01:40:34;;;;;;;3.63;3.33;;;;;19.80;100196.00;;;;2069070;28;20516;-47
2021/11/25 01:41:38;;;;;;;3.40;3.10;;;;;19.80;100214.00;;;;2078045;28;20843;-46
2021/11/25 01:42:40;;;;;;;3.38;3.17;;;;;19.80;100188.00;;;;2077613;28;20794;-45
2021/11/25 01:43:41;;;;;;;3.65;3.35;;;;;19.80;100193.00;;;;2077562;28;20296;-48
2021/11/25 01:44:41;;;;;;;3.47;3.17;;;;;19.80;100192.00;;;;2078474;28;20966;-47
2021/11/25 01:45:41;;;;;;;3.80;3.50;;;;;19.80;100192.00;;;;2078400;28;20225;-45
2021/11/25 01:46:42;;;;;;;3.23;3.03;;;;;19.80;100145.00;;;;2073867;28;20260;-45
2021/11/25 01:47:43;;;;;;;3.77;3.47;;;;;19.80;100195.00;;;;2077793;28;20358;-46
2021/11/25 01:48:44;;;;;;;3.42;3.13;;;;;19.80;100197.00;;;;2077768;28;20316;-47
2021/11/25 01:49:44;;;;;;;3.27;2.97;;;;;19.80;100192.00;;;;2076664;28;20623;-46
2021/11/25 01:50:45;;;;;;;3.40;3.10;;;;;19.80;100187.00;;;;2076393;28;20267;-45
2021/11/25 01:51:47;;;;;;;2.87;2.67;;;;;19.80;100190.00;;;;2077233;28;20205;-46
2021/11/25 01:52:47;;;;;;;3.60;3.30;;;;;19.80;100187.00;;;;2077365;28;20214;-48
2021/11/25 01:53:47;;;;;;;3.40;3.10;;;;;19.80;100184.00;;;;2077349;28;20241;-46
2021/11/25 01:54:48;;;;;;;3.37;3.07;;;;;19.80;100187.00;;;;2073836;28;20233;-45
2021/11/25 01:55:48;;;;;;;3.50;3.20;;;;;19.80;100185.00;;;;2069856;28;20238;-46
2021/11/25 01:56:48;;;;;;;3.17;2.90;;;;;19.80;100180.00;;;;2065443;28;20210;-46
2021/11/25 01:57:50;;;;;;;3.23;3.00;;;;;19.80;100176.00;;;;2060966;28;20218;-46
2021/11/25 01:58:51;;;;;;;4.10;3.80;;;;;19.80;100169.00;;;;2069690;28;20709;-45
2021/11/25 01:59:51;;;;;;;3.50;3.20;;;;;19.80;100171.00;;;;2070365;28;20207;-45
2021/11/25 02:00:53;;;;;;;3.50;3.20;;;;;19.80;100176.00;;;;2073443;28;20300;-45
2021/11/25 02:01:54;;;;;;;2.92;2.72;;;;;19.80;100170.00;;;;2078363;28;20222;-47
2021/11/25 02:02:54;;;;;;;3.87;3.57;;;;;19.80;100171.00;;;;2078198;28;20352;-48
2021/11/25 02:03:55;;;;;;;3.40;3.10;;;;;19.80;100172.00;;;;2078435;28;20279;-46
2021/11/25 02:04:56;;;;;;;3.63;3.10;;;;;19.80;100178.00;;;;2078473;28;20205;-46
2021/11/25 02:05:56;;;;;;;3.47;3.17;;;;;19.80;100182.00;;;;2070123;28;20218;-47
2021/11/25 02:06:56;;;;;;;3.57;3.27;;;;;19.80;100177.00;;;;2070121;28;20476;-46
2021/11/25 02:07:57;;;;;;;2.93;2.73;;;;;19.80;100177.00;;;;2079310;28;20635;-46
2021/11/25 02:08:59;;;;;;;3.53;3.23;;;;;19.80;100183.00;;;;2079227;28;20932;-46
2021/11/25 02:09:59;;;;;;;3.63;3.33;;;;;19.80;100174.00;;;;2079242;28;20217;-46
2021/11/25 02:10:59;;;;;;;3.20;2.93;;;;;19.80;100180.00;;;;2078165;28;20371;-46
2021/11/25 02:12:00;;;;;;;3.30;3.10;;;;;19.80;100175.00;;;;2079140;28;20213;-46
2021/11/25 02:13:01;;;;;;;3.30;3.00;;;;;19.80;100171.00;;;;2077288;28;20219;-46
2021/11/25 02:14:01;;;;;;;3.40;3.10;;;;;19.80;100167.00;;;;2068943;28;20453;-46
2021/11/25 02:15:01;;;;;;;3.33;3.03;;;;;19.80;100166.00;;;;2070633;28;20218;-46
2021/11/25 02:16:02;;;;;;;3.20;3.00;;;;;19.80;100163.00;;;;2071128;28;20256;-47
2021/11/25 02:17:03;;;;;;;4.70;2.95;;;;;19.80;100162.00;;;;2071230;28;20210;-46
2021/11/25 02:18:09;;;;;;;3.57;3.30;;;;;19.80;100160.00;;;;2072771;28;20218;-47
2021/11/25 02:19:09;;;;;;;3.33;3.08;;;;;19.80;100157.00;;;;2070914;28;20646;-48
2021/11/25 02:20:10;;;;;;;3.53;3.23;;;;;19.80;100154.00;;;;2079002;28;20233;-48
2021/11/25 02:21:11;;;;;;;3.40;3.10;;;;;19.80;100151.00;;;;2078295;28;20885;-47
2021/11/25 02:22:11;;;;;;;2.93;2.73;;;;;19.80;100155.00;;;;2080567;28;20863;-47
2021/11/25 02:23:12;;;;;;;3.10;2.80;;;;;19.80;100152.00;;;;2080284;28;20296;-47
2021/11/25 02:24:13;;;;;;;3.70;3.40;;;;;19.80;100160.00;;;;2080816;28;20284;-47
2021/11/25 02:25:14;;;;;;;3.10;2.80;;;;;19.80;100147.00;;;;2079872;28;20680;-47
2021/11/25 02:26:14;;;;;;;4.18;3.35;;;;;19.80;100147.00;;;;2080493;28;20571;-47
2021/11/25 02:27:18;;;;;;;3.03;2.83;;;;;19.80;100155.00;;;;2080135;28;20225;-47
2021/11/25 02:28:20;;;;;;;3.55;3.25;;;;;19.80;100148.00;;;;2078826;28;20214;-47
2021/11/25 02:29:20;;;;;;;3.40;3.20;;;;;19.80;100147.00;;;;2078325;28;20304;-47
2021/11/25 02:30:21;;;;;;;3.17;2.87;;;;;19.80;100144.00;;;;2079254;28;20290;-47
2021/11/25 02:31:22;;;;;;;3.57;3.23;;;;;19.80;100147.00;;;;2079953;28;20201;-47
2021/11/25 02:32:33;;;;;;;3.17;2.88;;;;;19.80;100149.00;;;;2078661;28;20460;-46
2021/11/25 02:33:34;;;;;;;2.90;2.70;;;;;19.80;100150.00;;;;2071838;28;20717;-48
2021/11/25 02:34:34;;;;;;;3.30;3.00;;;;;19.80;100150.00;;;;2072625;28;20210;-47
2021/11/25 02:35:37;;;;;;;3.47;3.17;;;;;19.80;100150.00;;;;2078797;28;20213;-46
2021/11/25 02:36:37;;;;;;;3.40;3.10;;;;;19.70;100146.00;;;;2080367;28;20218;-47
2021/11/25 02:37:37;;;;;;;4.10;2.90;;;;;19.80;100146.00;;;;2075056;28;20620;-47
2021/11/25 02:38:38;;;;;;;3.17;2.97;;;;;19.80;100147.00;;;;2072091;28;20244;-46
2021/11/25 02:39:38;;;;;;;3.53;2.83;;;;;19.80;100150.00;;;;2071965;28;20214;-46
2021/11/25 02:40:49;;;;;;;2.93;2.73;;;;;19.80;100155.00;;;;2070133;28;20214;-46
2021/11/25 02:41:50;;;;;;;3.05;2.85;;;;;19.80;100160.00;;;;2075572;28;20279;-47
2021/11/25 02:42:52;;;;;;;3.40;3.10;;;;;19.80;100156.00;;;;2080340;28;20674;-46
2021/11/25 02:43:54;;;;;;;3.40;3.10;;;;;19.80;100158.00;;;;2080394;28;20217;-47
2021/11/25 02:44:55;;;;;;;3.28;3.00;;;;;19.80;100158.00;;;;2079840;28;20232;-47
2021/11/25 02:46:04;;;;;;;3.20;3.00;;;;;19.80;100151.00;;;;2075256;28;20217;-47
2021/11/25 02:47:05;;;;;;;2.90;2.70;;;;;19.80;100150.00;;;;2071501;28;20216;-47
2021/11/25 02:48:05;;;;;;;3.10;2.80;;;;;19.80;100145.00;;;;2071494;28;20224;-46
2021/11/25 02:49:06;;;;;;;2.60;2.40;;;;;19.80;100150.00;;;;2076674;28;20222;-46
2021/11/25 02:50:07;;;;;;;3.40;3.10;;;;;19.80;100149.00;;;;2071969;28;20237;-46
2021/11/25 02:51:07;;;;;;;3.50;3.00;;;;;19.80;100156.00;;;;2071207;28;20309;-46
2021/11/25 02:52:08;;;;;;;2.80;2.60;;;;;19.80;100152.00;;;;2072200;28;20883;-46
2021/11/25 02:53:08;;;;;;;2.83;2.63;;;;;19.80;100150.00;;;;2071543;28;20628;-46
2021/11/25 02:54:09;;;;;;;3.40;3.10;;;;;19.80;100159.00;;;;2072451;28;20238;-46
2021/11/25 02:55:10;;;;;;;3.20;3.00;;;;;19.80;100153.00;;;;2072683;28;20210;-46
2021/11/25 02:56:13;;;;;;;3.00;2.80;;;;;19.80;100153.00;;;;2071448;28;20725;-46
2021/11/25 02:57:16;;;;;;;2.60;2.40;;;;;19.70;100156.00;;;;2071813;28;20214;-46
2021/11/25 02:58:18;;;;;;;2.70;2.50;;;;;19.80;100156.00;;;;2070742;28;20245;-47
2021/11/25 02:59:19;;;;;;;2.88;2.67;;;;;19.80;100155.00;;;;2071884;28;20337;-47
2021/11/25 03:00:23;;;;;;;2.90;2.70;;;;;19.80;100147.00;;;;2071592;28;20226;-46
2021/11/25 03:01:24;;;;;;;2.90;2.53;;;;;19.80;100150.00;;;;2071752;28;20625;-46
2021/11/25 03:02:25;;;;;;;3.30;3.05;;;;;19.70;100147.00;;;;2069713;28;20230;-47
2021/11/25 03:03:25;;;;;;;2.80;2.60;;;;;19.80;100148.00;;;;2072354;28;20214;-47
2021/11/25 03:04:25;;;;;;;3.30;3.03;;;;;19.80;100147.00;;;;2071924;28;20297;-47
2021/11/25 03:05:26;;;;;;;3.20;3.00;;;;;19.80;100149.00;;;;2071609;28;20210;-46
2021/11/25 03:06:27;;;;;;;3.53;3.23;;;;;19.70;100143.00;;;;2069045;28;20205;-46
2021/11/25 03:07:27;;;;;;;3.17;2.87;;;;;19.70;100147.00;;;;2079706;28;20499;-46
2021/11/25 03:08:27;;;;;;;3.40;3.10;;;;;19.70;100147.00;;;;2080791;28;20206;-46
2021/11/25 03:09:28;;;;;;;3.43;3.20;;;;;19.70;100142.00;;;;2080465;28;20583;-47
2021/11/25 03:10:33;;;;;;;3.43;3.13;;;;;19.70;100147.00;;;;2070274;28;20272;-47
2021/11/25 03:11:34;;;;;;;2.88;2.67;;;;;19.70;100144.00;;;;2071348;28;20210;-46
2021/11/25 03:12:34;;;;;;;3.20;2.90;;;;;19.70;100134.00;;;;2072400;28;20210;-47
2021/11/25 03:15:32;;;;;;;3.03;2.70;;;;;19.70;100138.00;;;;2066500;28;20698;-46
2021/11/25 03:16:32;;;;;;;3.20;2.90;;;;;19.70;100134.00;;;;2075452;28;20217;-46
2021/11/25 03:17:32;;;;;;;3.70;3.40;;;;;19.70;100126.00;;;;2074453;28;20653;-46
2021/11/25 03:18:34;;;;;;;3.20;3.00;;;;;19.70;100122.00;;;;2071641;28;20756;-46
2021/11/25 03:19:35;;;;;;;3.00;2.80;;;;;19.70;100125.00;;;;2071362;28;20269;-46
2021/11/25 03:20:37;;;;;;;3.10;2.90;;;;;19.70;100118.00;;;;2070925;28;20240;-46
2021/11/25 03:21:38;;;;;;;2.90;2.70;;;;;19.70;100118.00;;;;2076816;28;20307;-46
2021/11/25 03:22:38;;;;;;;3.33;3.03;;;;;19.70;100117.00;;;;2080153;28;20213;-46
2021/11/25 03:23:38;;;;;;;3.33;3.10;;;;;19.70;100120.00;;;;2080253;28;20213;-47
2021/11/25 03:24:39;;;;;;;2.73;2.53;;;;;19.70;100124.00;;;;2080209;28;20209;-47
2021/11/25 03:25:39;;;;;;;2.73;2.53;;;;;19.70;100122.00;;;;2071760;28;20221;-46
2021/11/25 03:26:40;;;;;;;2.70;2.50;;;;;19.70;100110.00;;;;2071567;28;20218;-46
2021/11/25 03:27:40;;;;;;;2.97;2.77;;;;;19.70;100120.00;;;;2075919;28;20272;-47
2021/11/25 03:28:43;;;;;;;2.93;2.73;;;;;19.70;100124.00;;;;2073324;28;20296;-46
2021/11/25 03:29:44;;;;;;;3.42;3.20;;;;;19.70;100125.00;;;;2079482;28;20244;-46
2021/11/25 03:30:44;;;;;;;3.20;2.90;;;;;19.70;100128.00;;;;2078915;28;20588;-46
2021/11/25 03:31:44;;;;;;;2.37;2.17;;;;;19.70;100117.00;;;;2079234;28;20288;-46
2021/11/25 03:32:45;;;;;;;2.90;2.70;;;;;19.70;100118.00;;;;2079467;28;20221;-47
2021/11/25 03:33:46;;;;;;;2.93;2.70;;;;;19.70;100118.00;;;;2078924;28;20229;-46
2021/11/25 03:34:46;;;;;;;2.73;2.53;;;;;19.70;100107.00;;;;2080699;28;20237;-46
2021/11/25 03:35:47;;;;;;;3.00;2.80;;;;;19.70;100110.00;;;;2080143;28;20474;-46
2021/11/25 03:36:48;;;;;;;2.67;2.47;;;;;19.70;100117.00;;;;2080345;28;20218;-47
2021/11/25 03:37:48;;;;;;;2.72;2.50;;;;;19.70;100112.00;;;;2079853;28;20232;-46
2021/11/25 03:38:49;;;;;;;3.10;2.90;;;;;19.60;100108.00;;;;2072116;28;20317;-46
2021/11/25 03:39:49;;;;;;;2.70;2.50;;;;;19.70;100109.00;;;;2067154;28;20709;-46
2021/11/25 03:40:50;;;;;;;2.80;2.60;;;;;19.70;100111.00;;;;2062416;28;20222;-47
2021/11/25 03:41:50;;;;;;;2.80;2.60;;;;;19.70;100120.00;;;;2062657;28;20604;-53
2021/11/25 03:42:50;;;;;;;3.00;2.80;;;;;19.70;100107.00;;;;2072124;28;20773;-50
2021/11/25 03:43:51;;;;;;;3.03;2.80;;;;;19.70;100106.00;;;;2069951;28;20580;-48
2021/11/25 03:44:53;;;;;;;3.10;2.90;;;;;19.70;100109.00;;;;2071795;28;20244;-47
2021/11/25 03:45:54;;;;;;;3.15;2.95;;;;;19.70;100104.00;;;;2071942;28;20213;-47
2021/11/25 03:46:54;;;;;;;2.50;2.30;;;;;19.70;100104.00;;;;2072275;28;20217;-47
2021/11/25 03:47:54;;;;;;;2.83;2.63;;;;;19.70;100109.00;;;;2071936;28;20241;-47
2021/11/25 03:48:55;;;;;;;2.57;2.37;;;;;19.70;100097.00;;;;2071366;28;20268;-47
2021/11/25 03:49:55;;;;;;;2.50;2.30;;;;;19.70;100102.00;;;;2070085;28;20265;-47
2021/11/25 03:50:57;;;;;;;2.80;2.60;;;;;19.70;100099.00;;;;2071228;28;20674;-47
2021/11/25 03:51:57;;;;;;;2.65;2.45;;;;;19.70;100099.00;;;;2071720;28;20214;-47
2021/11/25 03:52:58;;;;;;;2.70;2.50;;;;;19.70;100089.00;;;;2071655;28;20218;-47
2021/11/25 03:53:58;;;;;;;2.73;2.53;;;;;19.70;100095.00;;;;2072133;28;20217;-46
2021/11/25 03:54:58;;;;;;;2.03;1.93;;;;;19.70;100090.00;;;;2071807;28;20595;-47
2021/11/25 03:55:59;;;;;;;2.10;2.00;;;;;19.70;100086.00;;;;2067869;28;20779;-47
2021/11/25 03:56:59;;;;;;;2.53;2.33;;;;;19.70;100083.00;;;;2072076;28;20661;-47
2021/11/25 03:58:00;;;;;;;2.70;2.50;;;;;19.70;100081.00;;;;2072002;28;20264;-47
2021/11/25 03:59:00;;;;;;;2.80;2.60;;;;;19.70;100079.00;;;;2071976;28;20210;-47
2021/11/25 04:00:00;;;;;;;2.60;2.40;;;;;19.70;100081.00;;;;2071632;28;20214;-47
2021/11/25 04:01:01;;;;;;;2.80;2.37;;;;;19.70;100074.00;;;;2070565;28;20234;-47
2021/11/25 04:02:01;;;;;;;2.53;2.30;;;;;19.70;100082.00;;;;2072010;28;20703;-47
2021/11/25 04:03:02;;;;;;;2.73;2.53;;;;;19.70;100076.00;;;;2071151;28;20367;-47
2021/11/25 04:04:02;;;;;;;2.53;2.33;;;;;19.70;100087.00;;;;2070538;28;20221;-46
2021/11/25 04:05:03;;;;;;;2.47;2.27;;;;;19.70;100080.00;;;;2071618;28;20215;-47
2021/11/25 04:06:04;;;;;;;2.83;2.63;;;;;19.70;100083.00;;;;2070535;28;20210;-47
2021/11/25 04:07:04;;;;;;;2.60;2.40;;;;;19.70;100083.00;;;;2076718;28;20670;-46
2021/11/25 04:08:05;;;;;;;2.20;2.00;;;;;19.70;100077.00;;;;2079345;28;20868;-46
2021/11/25 04:09:05;;;;;;;2.20;2.00;;;;;19.70;100049.00;;;;2079339;28;20601;-47
2021/11/25 04:10:07;;;;;;;2.40;2.20;;;;;19.70;100082.00;;;;2079882;28;20341;-47
2021/11/25 04:11:07;;;;;;;2.93;2.73;;;;;19.70;100084.00;;;;2078569;28;20362;-47
2021/11/25 04:12:08;;;;;;;2.00;1.90;;;;;19.70;100077.00;;;;2074680;28;20461;-46
2021/11/25 04:13:09;;;;;;;2.80;2.60;;;;;19.60;100068.00;;;;2072342;28;20215;-47
2021/11/25 04:14:09;;;;;;;2.50;2.30;;;;;19.60;100073.00;;;;2080091;28;20213;-46
2021/11/25 04:15:10;;;;;;;2.73;2.53;;;;;19.60;100088.00;;;;2079853;28;20209;-46
2021/11/25 04:16:10;;;;;;;2.75;2.55;;;;;19.60;100074.00;;;;2080172;28;20758;-47
2021/11/25 04:17:11;;;;;;;2.50;2.30;;;;;19.60;100084.00;;;;2079629;28;20205;-46
2021/11/25 04:18:12;;;;;;;2.37;2.17;;;;;19.70;100065.00;;;;2079886;28;20214;-47
2021/11/25 04:19:12;;;;;;;2.13;2.00;;;;;19.60;100065.00;;;;2079735;28;20746;-47
2021/11/25 04:20:12;;;;;;;2.57;2.37;;;;;19.70;100066.00;;;;2079942;28;20296;-46
2021/11/25 04:21:13;;;;;;;2.50;2.30;;;;;19.70;100079.00;;;;2078397;28;20218;-46
2021/11/25 04:22:14;;;;;;;2.10;2.00;;;;;19.70;100076.00;;;;2079902;28;20275;-47
2021/11/25 04:23:14;;;;;;;2.10;2.00;;;;;19.70;100067.00;;;;2079575;28;20213;-46
2021/11/25 04:24:14;;;;;;;2.37;2.17;;;;;19.70;100077.00;;;;2071916;28;20461;-46
2021/11/25 04:25:15;;;;;;;2.70;2.50;;;;;19.60;100070.00;;;;2071906;28;21159;-46
2021/11/25 04:26:15;;;;;;;2.30;2.10;;;;;19.60;100068.00;;;;2071769;28;20814;-46
2021/11/25 04:27:15;;;;;;;2.13;2.00;;;;;19.60;100067.00;;;;2072017;28;20229;-46
2021/11/25 04:28:16;;;;;;;2.37;2.17;;;;;19.60;100065.00;;;;2071871;28;20230;-46
2021/11/25 04:29:17;;;;;;;2.10;2.00;;;;;19.60;100065.00;;;;2071850;28;20223;-47
2021/11/25 04:35:28;;;;;;;2.10;2.00;;;;;19.60;100077.00;;;;2071555;28;20221;-47
2021/11/25 04:36:31;;;;;;;2.22;2.10;;;;;19.60;100089.00;;;;2070596;28;20210;-47
2021/11/25 04:37:32;;;;;;;2.20;2.00;;;;;19.60;100066.00;;;;2070800;28;20242;-47
2021/11/25 04:38:32;;;;;;;2.30;2.13;;;;;19.60;100067.00;;;;2078890;28;20699;-47
2021/11/25 04:39:32;;;;;;;2.10;1.90;;;;;19.60;100068.00;;;;2079835;28;20274;-47
2021/11/25 04:40:35;;;;;;;2.60;2.40;;;;;19.60;100076.00;;;;2078428;28;20213;-47
2021/11/25 04:41:36;;;;;;;2.05;1.92;;;;;19.70;100060.00;;;;2077857;28;20214;-47
2021/11/25 04:42:36;;;;;;;1.80;1.70;;;;;19.60;100060.00;;;;2079032;28;20206;-46
2021/11/25 04:43:37;;;;;;;2.30;2.10;;;;;19.60;100058.00;;;;2075006;28;20214;-47
2021/11/25 04:44:37;;;;;;;1.90;1.80;;;;;19.60;100064.00;;;;2079894;28;20225;-47
2021/11/25 04:45:38;;;;;;;2.30;2.10;;;;;19.60;100059.00;;;;2079645;28;20289;-46
2021/11/25 04:46:38;;;;;;;2.25;2.10;;;;;19.60;100053.00;;;;2079861;28;20773;-47
2021/11/25 04:47:41;;;;;;;2.33;2.17;;;;;19.60;100056.00;;;;2076298;28;20320;-46
2021/11/25 04:48:41;;;;;;;1.95;1.85;;;;;19.60;100056.00;;;;2063107;28;20214;-47
2021/11/25 04:49:42;;;;;;;2.30;2.10;;;;;19.60;100060.00;;;;2070992;28;20206;-46
2021/11/25 04:50:42;;;;;;;2.53;2.33;;;;;19.60;100049.00;;;;2067870;28;20682;-47
2021/11/25 04:51:42;;;;;;;2.40;2.20;;;;;19.60;100054.00;;;;2070278;28;20212;-46
2021/11/25 04:52:43;;;;;;;2.30;2.10;;;;;19.60;100052.00;;;;2068248;28;20225;-46
2021/11/25 04:53:44;;;;;;;2.37;2.17;;;;;19.60;100049.00;;;;2070990;28;20246;-46
2021/11/25 04:54:44;;;;;;;2.30;2.20;;;;;19.60;100041.00;;;;2070937;28;20228;-47
2021/11/25 04:55:45;;;;;;;1.90;1.80;;;;;19.60;100049.00;;;;2071162;28;20531;-46
2021/11/25 04:56:45;;;;;;;2.23;2.03;;;;;19.60;100040.00;;;;2071186;28;20214;-46
2021/11/25 04:57:46;;;;;;;1.83;1.73;;;;;19.60;100042.00;;;;2069923;28;20570;-46
2021/11/25 04:58:47;;;;;;;2.17;2.00;;;;;19.40;100044.00;;;;2070392;28;20234;-46
2021/11/25 04:59:47;;;;;;;2.23;2.03;;;;;19.60;100040.00;;;;2071021;28;20464;-47
2021/11/25 05:00:48;;;;;;;2.20;2.00;;;;;19.60;100051.00;;;;2069802;28;20237;-47
2021/11/25 05:01:48;;;;;;;2.30;2.10;;;;;19.60;100040.00;;;;2074948;28;20221;-46
2021/11/25 05:02:48;;;;;;;1.90;1.80;;;;;19.60;100041.00;;;;2078798;28;20354;-47
2021/11/25 05:03:49;;;;;;;2.20;2.00;;;;;19.60;100047.00;;;;2079461;28;20229;-46
2021/11/25 05:04:49;;;;;;;2.03;1.90;;;;;19.60;100050.00;;;;2079342;28;20229;-46
2021/11/25 05:05:49;;;;;;;2.10;1.93;;;;;19.60;100047.00;;;;2079383;28;20213;-47
2021/11/25 05:06:50;;;;;;;2.20;2.10;;;;;19.60;100040.00;;;;2079491;28;20224;-46
2021/11/25 05:07:51;;;;;;;2.83;2.63;;;;;19.60;100048.00;;;;2078658;28;20206;-47